Bushmills, United Kingdom
Current Conditions -  °F | °C
As of 8:20 AM on Tuesday 27 Jan 2015 (Local Time) from EGAE Reporting Station
Broken Clouds Broken Clouds  
Wind Chill:   Ceiling: 2500
Heat Index:   Visibility: 6mi
Dew Point:   Wind: 10mph
Humidity: 93%   Direction: 220°SW
Pressure: 30.27"   Gusts: NA
Location:  55.2°N, 6.52°W
Report Text: EGAE 270820Z 22009KT 190V250 9000 FEW006 SCT009 BKN025 08/07 Q1025 REDZ
Loading
Personal Weather Stations






























Interactive Weather Map New forecast layout! Learn more

10-Day Weather Forecast

Advertisements
Track Severe Weather on mobile